sensor_id;sensor_type;location;lat;lon;timestamp;P1;durP1;ratioP1;P2;durP2;ratioP2
38693;SDS011;24447;43.460;25.744;2023-06-22T00:01:57;19.98;;;8.38;;
38693;SDS011;24447;43.460;25.744;2023-06-22T00:04:23;16.85;;;8.65;;
38693;SDS011;24447;43.460;25.744;2023-06-22T00:06:50;16.73;;;8.88;;
38693;SDS011;24447;43.460;25.744;2023-06-22T00:09:16;19.17;;;8.68;;
38693;SDS011;24447;43.460;25.744;2023-06-22T00:11:42;20.92;;;8.45;;
38693;SDS011;24447;43.460;25.744;2023-06-22T00:14:08;17.40;;;8.40;;
38693;SDS011;24447;43.460;25.744;2023-06-22T00:16:34;17.25;;;8.38;;
38693;SDS011;24447;43.460;25.744;2023-06-22T00:19:00;24.58;;;8.85;;
38693;SDS011;24447;43.460;25.744;2023-06-22T00:21:27;21.88;;;9.30;;
38693;SDS011;24447;43.460;25.744;2023-06-22T00:23:53;18.83;;;8.88;;
38693;SDS011;24447;43.460;25.744;2023-06-22T00:26:19;17.50;;;8.05;;
38693;SDS011;24447;43.460;25.744;2023-06-22T00:28:46;18.63;;;8.77;;
38693;SDS011;24447;43.460;25.744;2023-06-22T00:31:12;20.52;;;8.68;;
38693;SDS011;24447;43.460;25.744;2023-06-22T00:33:38;19.98;;;8.63;;
38693;SDS011;24447;43.460;25.744;2023-06-22T00:36:04;20.23;;;9.48;;
38693;SDS011;24447;43.460;25.744;2023-06-22T00:38:31;17.77;;;8.68;;
38693;SDS011;24447;43.460;25.744;2023-06-22T00:40:57;20.17;;;9.05;;
38693;SDS011;24447;43.460;25.744;2023-06-22T00:43:23;19.35;;;9.32;;
38693;SDS011;24447;43.460;25.744;2023-06-22T00:45:48;19.52;;;9.93;;
38693;SDS011;24447;43.460;25.744;2023-06-22T00:48:14;23.08;;;9.98;;
38693;SDS011;24447;43.460;25.744;2023-06-22T00:50:41;17.92;;;8.88;;
38693;SDS011;24447;43.460;25.744;2023-06-22T00:53:07;20.25;;;10.15;;
38693;SDS011;24447;43.460;25.744;2023-06-22T00:55:35;21.80;;;8.88;;
38693;SDS011;24447;43.460;25.744;2023-06-22T00:58:05;20.83;;;9.88;;
38693;SDS011;24447;43.460;25.744;2023-06-22T01:00:35;19.00;;;9.30;;
38693;SDS011;24447;43.460;25.744;2023-06-22T01:03:02;19.17;;;9.88;;
38693;SDS011;24447;43.460;25.744;2023-06-22T01:05:28;19.35;;;9.90;;
38693;SDS011;24447;43.460;25.744;2023-06-22T01:16:25;20.27;;;9.20;;
38693;SDS011;24447;43.460;25.744;2023-06-22T01:18:51;18.98;;;9.50;;
38693;SDS011;24447;43.460;25.744;2023-06-22T01:21:19;21.50;;;9.55;;
38693;SDS011;24447;43.460;25.744;2023-06-22T01:28:59;20.83;;;9.70;;
38693;SDS011;24447;43.460;25.744;2023-06-22T01:31:27;20.17;;;9.40;;
38693;SDS011;24447;43.460;25.744;2023-06-22T01:33:55;21.25;;;10.20;;
38693;SDS011;24447;43.460;25.744;2023-06-22T01:36:24;20.38;;;9.70;;
38693;SDS011;24447;43.460;25.744;2023-06-22T01:38:51;19.52;;;10.48;;
38693;SDS011;24447;43.460;25.744;2023-06-22T01:41:18;24.40;;;10.50;;
38693;SDS011;24447;43.460;25.744;2023-06-22T01:43:45;18.05;;;10.55;;
38693;SDS011;24447;43.460;25.744;2023-06-22T01:46:11;22.63;;;9.60;;
38693;SDS011;24447;43.460;25.744;2023-06-22T01:48:38;20.25;;;9.43;;
38693;SDS011;24447;43.460;25.744;2023-06-22T01:51:04;21.73;;;9.77;;
38693;SDS011;24447;43.460;25.744;2023-06-22T01:53:30;19.88;;;8.63;;
38693;SDS011;24447;43.460;25.744;2023-06-22T01:55:56;17.55;;;9.85;;
38693;SDS011;24447;43.460;25.744;2023-06-22T01:58:23;21.45;;;10.27;;
38693;SDS011;24447;43.460;25.744;2023-06-22T02:00:56;19.50;;;9.43;;
38693;SDS011;24447;43.460;25.744;2023-06-22T02:03:31;20.38;;;10.02;;
38693;SDS011;24447;43.460;25.744;2023-06-22T02:06:03;22.17;;;9.45;;
38693;SDS011;24447;43.460;25.744;2023-06-22T02:08:33;19.58;;;8.40;;
38693;SDS011;24447;43.460;25.744;2023-06-22T02:11:03;18.77;;;8.90;;
38693;SDS011;24447;43.460;25.744;2023-06-22T02:13:29;17.33;;;9.00;;
38693;SDS011;24447;43.460;25.744;2023-06-22T02:15:55;21.88;;;9.20;;
38693;SDS011;24447;43.460;25.744;2023-06-22T02:18:21;20.95;;;9.48;;
38693;SDS011;24447;43.460;25.744;2023-06-22T02:20:47;18.58;;;9.05;;
38693;SDS011;24447;43.460;25.744;2023-06-22T02:23:13;20.55;;;9.48;;
38693;SDS011;24447;43.460;25.744;2023-06-22T02:25:39;18.45;;;8.93;;
38693;SDS011;24447;43.460;25.744;2023-06-22T02:28:09;17.98;;;8.55;;
38693;SDS011;24447;43.460;25.744;2023-06-22T02:30:35;20.10;;;8.68;;
38693;SDS011;24447;43.460;25.744;2023-06-22T02:33:01;17.58;;;8.45;;
38693;SDS011;24447;43.460;25.744;2023-06-22T02:35:27;18.95;;;9.10;;
38693;SDS011;24447;43.460;25.744;2023-06-22T02:38:00;17.65;;;8.65;;
38693;SDS011;24447;43.460;25.744;2023-06-22T02:40:28;20.42;;;9.60;;
38693;SDS011;24447;43.460;25.744;2023-06-22T02:42:54;22.10;;;9.05;;
38693;SDS011;24447;43.460;25.744;2023-06-22T02:45:23;19.08;;;9.18;;
38693;SDS011;24447;43.460;25.744;2023-06-22T02:47:49;18.08;;;8.60;;
38693;SDS011;24447;43.460;25.744;2023-06-22T02:50:15;17.05;;;8.60;;
38693;SDS011;24447;43.460;25.744;2023-06-22T02:52:41;18.98;;;9.73;;
38693;SDS011;24447;43.460;25.744;2023-06-22T02:55:07;21.20;;;9.52;;
38693;SDS011;24447;43.460;25.744;2023-06-22T02:57:33;16.73;;;8.02;;
38693;SDS011;24447;43.460;25.744;2023-06-22T02:59:59;20.13;;;8.73;;
38693;SDS011;24447;43.460;25.744;2023-06-22T03:02:25;19.23;;;9.07;;
38693;SDS011;24447;43.460;25.744;2023-06-22T03:04:52;17.48;;;8.40;;
38693;SDS011;24447;43.460;25.744;2023-06-22T03:07:19;16.48;;;8.57;;
38693;SDS011;24447;43.460;25.744;2023-06-22T03:09:45;17.77;;;8.77;;
38693;SDS011;24447;43.460;25.744;2023-06-22T03:12:11;27.30;;;9.32;;
38693;SDS011;24447;43.460;25.744;2023-06-22T03:14:37;20.27;;;8.73;;
38693;SDS011;24447;43.460;25.744;2023-06-22T03:17:04;16.20;;;8.30;;
38693;SDS011;24447;43.460;25.744;2023-06-22T03:19:31;22.45;;;7.88;;
38693;SDS011;24447;43.460;25.744;2023-06-22T03:21:57;17.25;;;7.55;;
38693;SDS011;24447;43.460;25.744;2023-06-22T03:24:24;19.63;;;8.50;;
38693;SDS011;24447;43.460;25.744;2023-06-22T03:26:50;22.30;;;8.65;;
38693;SDS011;24447;43.460;25.744;2023-06-22T03:29:16;16.92;;;8.05;;
38693;SDS011;24447;43.460;25.744;2023-06-22T03:31:42;16.88;;;7.97;;
38693;SDS011;24447;43.460;25.744;2023-06-22T03:34:08;16.88;;;8.07;;
38693;SDS011;24447;43.460;25.744;2023-06-22T03:36:34;17.73;;;8.95;;
38693;SDS011;24447;43.460;25.744;2023-06-22T03:39:00;17.10;;;8.20;;
38693;SDS011;24447;43.460;25.744;2023-06-22T03:41:26;19.23;;;8.43;;
38693;SDS011;24447;43.460;25.744;2023-06-22T03:43:52;19.50;;;8.25;;
38693;SDS011;24447;43.460;25.744;2023-06-22T03:46:18;20.60;;;8.35;;
38693;SDS011;24447;43.460;25.744;2023-06-22T03:48:45;17.33;;;7.63;;
38693;SDS011;24447;43.460;25.744;2023-06-22T03:51:11;15.60;;;8.63;;
38693;SDS011;24447;43.460;25.744;2023-06-22T03:53:36;17.40;;;9.20;;
38693;SDS011;24447;43.460;25.744;2023-06-22T03:56:02;18.65;;;7.32;;
38693;SDS011;24447;43.460;25.744;2023-06-22T03:58:29;15.50;;;6.22;;
38693;SDS011;24447;43.460;25.744;2023-06-22T04:00:57;15.20;;;6.68;;
38693;SDS011;24447;43.460;25.744;2023-06-22T04:03:25;19.30;;;6.90;;
38693;SDS011;24447;43.460;25.744;2023-06-22T04:05:51;17.58;;;8.45;;
38693;SDS011;24447;43.460;25.744;2023-06-22T04:08:17;15.23;;;7.20;;
38693;SDS011;24447;43.460;25.744;2023-06-22T04:10:43;20.20;;;7.72;;
38693;SDS011;24447;43.460;25.744;2023-06-22T04:13:10;14.35;;;6.85;;
38693;SDS011;24447;43.460;25.744;2023-06-22T04:15:36;15.27;;;7.63;;
38693;SDS011;24447;43.460;25.744;2023-06-22T04:18:02;15.52;;;7.55;;
38693;SDS011;24447;43.460;25.744;2023-06-22T04:20:28;16.00;;;8.05;;
38693;SDS011;24447;43.460;25.744;2023-06-22T04:22:53;13.77;;;6.72;;
38693;SDS011;24447;43.460;25.744;2023-06-22T04:25:19;15.73;;;6.95;;
38693;SDS011;24447;43.460;25.744;2023-06-22T04:38:43;12.77;;;6.25;;
38693;SDS011;24447;43.460;25.744;2023-06-22T04:41:09;13.55;;;6.50;;
38693;SDS011;24447;43.460;25.744;2023-06-22T04:43:48;19.10;;;7.43;;
38693;SDS011;24447;43.460;25.744;2023-06-22T04:46:19;13.45;;;6.38;;
38693;SDS011;24447;43.460;25.744;2023-06-22T04:48:45;12.10;;;6.80;;
38693;SDS011;24447;43.460;25.744;2023-06-22T04:51:11;18.20;;;7.30;;
38693;SDS011;24447;43.460;25.744;2023-06-22T04:53:36;13.75;;;6.97;;
38693;SDS011;24447;43.460;25.744;2023-06-22T04:56:06;21.13;;;7.53;;
38693;SDS011;24447;43.460;25.744;2023-06-22T04:58:32;17.25;;;7.38;;
38693;SDS011;24447;43.460;25.744;2023-06-22T05:00:58;14.75;;;7.53;;
38693;SDS011;24447;43.460;25.744;2023-06-22T05:03:27;18.67;;;7.30;;
38693;SDS011;24447;43.460;25.744;2023-06-22T05:05:52;18.55;;;7.00;;
38693;SDS011;24447;43.460;25.744;2023-06-22T05:08:18;23.52;;;8.02;;
38693;SDS011;24447;43.460;25.744;2023-06-22T05:10:44;15.38;;;7.75;;
38693;SDS011;24447;43.460;25.744;2023-06-22T05:13:10;23.50;;;8.07;;
38693;SDS011;24447;43.460;25.744;2023-06-22T05:15:36;24.67;;;10.18;;
38693;SDS011;24447;43.460;25.744;2023-06-22T05:18:05;21.58;;;12.40;;
38693;SDS011;24447;43.460;25.744;2023-06-22T05:20:31;21.65;;;11.63;;
38693;SDS011;24447;43.460;25.744;2023-06-22T05:23:01;19.85;;;11.25;;
38693;SDS011;24447;43.460;25.744;2023-06-22T05:25:27;20.85;;;11.45;;
38693;SDS011;24447;43.460;25.744;2023-06-22T05:27:54;21.42;;;11.73;;
38693;SDS011;24447;43.460;25.744;2023-06-22T05:30:20;20.13;;;9.73;;
38693;SDS011;24447;43.460;25.744;2023-06-22T05:32:46;23.70;;;11.45;;
38693;SDS011;24447;43.460;25.744;2023-06-22T05:35:12;21.70;;;11.45;;
38693;SDS011;24447;43.460;25.744;2023-06-22T05:37:38;19.92;;;10.60;;
38693;SDS011;24447;43.460;25.744;2023-06-22T05:40:04;20.50;;;11.20;;
38693;SDS011;24447;43.460;25.744;2023-06-22T05:42:32;21.27;;;9.65;;
38693;SDS011;24447;43.460;25.744;2023-06-22T05:44:58;19.73;;;9.52;;
38693;SDS011;24447;43.460;25.744;2023-06-22T05:47:24;21.23;;;7.85;;
38693;SDS011;24447;43.460;25.744;2023-06-22T05:49:50;23.00;;;9.38;;
38693;SDS011;24447;43.460;25.744;2023-06-22T05:52:16;17.17;;;8.07;;
38693;SDS011;24447;43.460;25.744;2023-06-22T05:54:42;19.67;;;8.82;;
38693;SDS011;24447;43.460;25.744;2023-06-22T05:57:08;20.92;;;10.02;;
38693;SDS011;24447;43.460;25.744;2023-06-22T05:59:33;20.25;;;10.80;;
38693;SDS011;24447;43.460;25.744;2023-06-22T06:01:59;22.13;;;12.05;;
38693;SDS011;24447;43.460;25.744;2023-06-22T06:04:25;22.52;;;13.00;;
38693;SDS011;24447;43.460;25.744;2023-06-22T06:06:51;24.38;;;12.45;;
38693;SDS011;24447;43.460;25.744;2023-06-22T06:09:17;19.48;;;10.07;;
38693;SDS011;24447;43.460;25.744;2023-06-22T06:11:43;21.63;;;11.15;;
38693;SDS011;24447;43.460;25.744;2023-06-22T06:14:09;14.95;;;8.32;;
38693;SDS011;24447;43.460;25.744;2023-06-22T06:16:35;14.82;;;8.30;;
38693;SDS011;24447;43.460;25.744;2023-06-22T06:19:00;15.95;;;8.05;;
38693;SDS011;24447;43.460;25.744;2023-06-22T06:21:26;15.00;;;7.40;;
38693;SDS011;24447;43.460;25.744;2023-06-22T06:23:52;15.60;;;7.32;;
38693;SDS011;24447;43.460;25.744;2023-06-22T06:26:18;15.35;;;7.82;;
38693;SDS011;24447;43.460;25.744;2023-06-22T06:28:52;16.05;;;7.45;;
38693;SDS011;24447;43.460;25.744;2023-06-22T06:31:19;21.63;;;9.00;;
38693;SDS011;24447;43.460;25.744;2023-06-22T06:33:45;13.93;;;7.50;;
38693;SDS011;24447;43.460;25.744;2023-06-22T06:36:11;17.55;;;7.15;;
38693;SDS011;24447;43.460;25.744;2023-06-22T06:38:37;14.57;;;7.00;;
38693;SDS011;24447;43.460;25.744;2023-06-22T06:41:03;14.25;;;6.88;;
38693;SDS011;24447;43.460;25.744;2023-06-22T06:43:29;13.55;;;7.30;;
38693;SDS011;24447;43.460;25.744;2023-06-22T06:45:55;13.40;;;7.40;;
38693;SDS011;24447;43.460;25.744;2023-06-22T06:48:21;14.13;;;6.78;;
38693;SDS011;24447;43.460;25.744;2023-06-22T06:50:47;15.60;;;6.35;;
38693;SDS011;24447;43.460;25.744;2023-06-22T06:53:13;13.55;;;7.15;;
38693;SDS011;24447;43.460;25.744;2023-06-22T06:55:39;14.93;;;6.65;;
38693;SDS011;24447;43.460;25.744;2023-06-22T06:58:05;11.10;;;6.40;;
38693;SDS011;24447;43.460;25.744;2023-06-22T07:00:33;13.07;;;6.55;;
38693;SDS011;24447;43.460;25.744;2023-06-22T07:03:00;19.45;;;7.63;;
38693;SDS011;24447;43.460;25.744;2023-06-22T07:05:26;21.00;;;6.47;;
38693;SDS011;24447;43.460;25.744;2023-06-22T07:07:52;18.73;;;6.63;;
38693;SDS011;24447;43.460;25.744;2023-06-22T07:10:18;13.52;;;6.35;;
38693;SDS011;24447;43.460;25.744;2023-06-22T07:12:44;11.25;;;6.25;;
38693;SDS011;24447;43.460;25.744;2023-06-22T07:15:11;10.88;;;6.13;;
38693;SDS011;24447;43.460;25.744;2023-06-22T07:17:37;13.02;;;6.55;;
38693;SDS011;24447;43.460;25.744;2023-06-22T07:20:07;24.63;;;6.88;;
38693;SDS011;24447;43.460;25.744;2023-06-22T07:22:37;12.35;;;6.90;;
38693;SDS011;24447;43.460;25.744;2023-06-22T07:25:04;9.88;;;5.65;;
38693;SDS011;24447;43.460;25.744;2023-06-22T07:27:37;9.15;;;5.30;;
38693;SDS011;24447;43.460;25.744;2023-06-22T07:30:07;9.43;;;5.75;;
38693;SDS011;24447;43.460;25.744;2023-06-22T07:32:34;11.52;;;5.40;;
38693;SDS011;24447;43.460;25.744;2023-06-22T07:35:00;12.90;;;5.13;;
38693;SDS011;24447;43.460;25.744;2023-06-22T07:37:27;10.93;;;5.38;;
38693;SDS011;24447;43.460;25.744;2023-06-22T07:39:54;9.70;;;5.47;;
38693;SDS011;24447;43.460;25.744;2023-06-22T07:42:26;10.02;;;5.25;;
38693;SDS011;24447;43.460;25.744;2023-06-22T07:44:53;7.90;;;4.70;;
38693;SDS011;24447;43.460;25.744;2023-06-22T07:47:19;8.98;;;5.40;;
38693;SDS011;24447;43.460;25.744;2023-06-22T07:49:50;8.32;;;4.88;;
38693;SDS011;24447;43.460;25.744;2023-06-22T07:52:16;9.88;;;4.55;;
38693;SDS011;24447;43.460;25.744;2023-06-22T07:54:42;11.30;;;5.15;;
38693;SDS011;24447;43.460;25.744;2023-06-22T07:57:08;9.48;;;5.72;;
38693;SDS011;24447;43.460;25.744;2023-06-22T07:59:33;10.38;;;5.10;;
38693;SDS011;24447;43.460;25.744;2023-06-22T08:01:59;10.63;;;5.35;;
38693;SDS011;24447;43.460;25.744;2023-06-22T08:04:28;11.40;;;6.40;;
38693;SDS011;24447;43.460;25.744;2023-06-22T08:06:54;7.78;;;5.05;;
38693;SDS011;24447;43.460;25.744;2023-06-22T08:09:20;10.02;;;4.85;;
38693;SDS011;24447;43.460;25.744;2023-06-22T08:11:46;7.57;;;4.82;;
38693;SDS011;24447;43.460;25.744;2023-06-22T08:14:14;10.77;;;5.63;;
38693;SDS011;24447;43.460;25.744;2023-06-22T08:16:41;9.40;;;5.07;;
38693;SDS011;24447;43.460;25.744;2023-06-22T08:19:07;9.57;;;4.90;;
38693;SDS011;24447;43.460;25.744;2023-06-22T08:21:33;11.27;;;4.97;;
38693;SDS011;24447;43.460;25.744;2023-06-22T08:23:59;7.60;;;4.65;;
38693;SDS011;24447;43.460;25.744;2023-06-22T08:26:25;12.40;;;5.28;;
38693;SDS011;24447;43.460;25.744;2023-06-22T08:28:50;7.72;;;4.82;;
38693;SDS011;24447;43.460;25.744;2023-06-22T08:31:17;8.98;;;4.63;;
38693;SDS011;24447;43.460;25.744;2023-06-22T08:33:43;8.07;;;5.20;;
38693;SDS011;24447;43.460;25.744;2023-06-22T08:36:10;9.82;;;4.85;;
38693;SDS011;24447;43.460;25.744;2023-06-22T08:38:38;7.70;;;4.50;;
38693;SDS011;24447;43.460;25.744;2023-06-22T08:41:04;7.60;;;4.70;;
38693;SDS011;24447;43.460;25.744;2023-06-22T08:43:30;11.13;;;5.03;;
38693;SDS011;24447;43.460;25.744;2023-06-22T08:45:55;14.48;;;4.80;;
38693;SDS011;24447;43.460;25.744;2023-06-22T08:48:21;9.57;;;5.18;;
38693;SDS011;24447;43.460;25.744;2023-06-22T08:50:47;9.60;;;4.88;;
38693;SDS011;24447;43.460;25.744;2023-06-22T08:53:13;13.00;;;5.45;;
38693;SDS011;24447;43.460;25.744;2023-06-22T08:55:39;7.10;;;4.72;;
38693;SDS011;24447;43.460;25.744;2023-06-22T08:58:05;9.55;;;5.07;;
38693;SDS011;24447;43.460;25.744;2023-06-22T09:00:31;8.55;;;4.63;;
38693;SDS011;24447;43.460;25.744;2023-06-22T09:02:59;7.68;;;4.50;;
38693;SDS011;24447;43.460;25.744;2023-06-22T09:05:25;8.32;;;4.78;;
38693;SDS011;24447;43.460;25.744;2023-06-22T09:07:51;8.45;;;4.72;;
38693;SDS011;24447;43.460;25.744;2023-06-22T09:10:19;13.45;;;5.78;;
38693;SDS011;24447;43.460;25.744;2023-06-22T09:12:45;11.88;;;5.85;;
38693;SDS011;24447;43.460;25.744;2023-06-22T09:15:11;6.57;;;4.47;;
38693;SDS011;24447;43.460;25.744;2023-06-22T09:17:37;8.77;;;4.78;;
38693;SDS011;24447;43.460;25.744;2023-06-22T09:20:03;7.43;;;5.03;;
38693;SDS011;24447;43.460;25.744;2023-06-22T09:22:30;9.30;;;5.50;;
38693;SDS011;24447;43.460;25.744;2023-06-22T09:24:57;8.25;;;5.10;;
38693;SDS011;24447;43.460;25.744;2023-06-22T09:27:24;9.65;;;4.82;;
38693;SDS011;24447;43.460;25.744;2023-06-22T09:29:50;9.98;;;4.78;;
38693;SDS011;24447;43.460;25.744;2023-06-22T09:32:16;9.70;;;5.13;;
38693;SDS011;24447;43.460;25.744;2023-06-22T09:34:42;9.38;;;5.35;;
38693;SDS011;24447;43.460;25.744;2023-06-22T09:37:08;8.23;;;4.80;;
38693;SDS011;24447;43.460;25.744;2023-06-22T09:39:34;9.95;;;5.18;;
38693;SDS011;24447;43.460;25.744;2023-06-22T09:42:01;10.52;;;5.25;;
38693;SDS011;24447;43.460;25.744;2023-06-22T09:44:27;7.28;;;4.57;;
38693;SDS011;24447;43.460;25.744;2023-06-22T09:46:53;7.78;;;4.70;;
38693;SDS011;24447;43.460;25.744;2023-06-22T09:49:19;6.85;;;4.75;;
38693;SDS011;24447;43.460;25.744;2023-06-22T09:51:45;8.00;;;4.82;;
38693;SDS011;24447;43.460;25.744;2023-06-22T09:54:11;10.20;;;5.15;;
38693;SDS011;24447;43.460;25.744;2023-06-22T09:56:37;9.35;;;4.65;;
38693;SDS011;24447;43.460;25.744;2023-06-22T09:59:03;7.75;;;4.68;;
38693;SDS011;24447;43.460;25.744;2023-06-22T10:01:29;11.18;;;5.63;;
38693;SDS011;24447;43.460;25.744;2023-06-22T10:03:55;10.63;;;4.78;;
38693;SDS011;24447;43.460;25.744;2023-06-22T10:06:21;10.23;;;4.80;;
38693;SDS011;24447;43.460;25.744;2023-06-22T10:08:47;6.35;;;4.63;;
38693;SDS011;24447;43.460;25.744;2023-06-22T10:11:13;9.27;;;5.00;;
38693;SDS011;24447;43.460;25.744;2023-06-22T10:13:39;8.63;;;5.25;;
38693;SDS011;24447;43.460;25.744;2023-06-22T10:16:05;12.95;;;5.32;;
38693;SDS011;24447;43.460;25.744;2023-06-22T10:18:32;8.60;;;5.18;;
38693;SDS011;24447;43.460;25.744;2023-06-22T10:20:58;10.27;;;4.80;;
38693;SDS011;24447;43.460;25.744;2023-06-22T10:23:24;10.05;;;5.43;;
38693;SDS011;24447;43.460;25.744;2023-06-22T10:25:50;9.15;;;4.60;;
38693;SDS011;24447;43.460;25.744;2023-06-22T10:28:15;9.00;;;5.03;;
38693;SDS011;24447;43.460;25.744;2023-06-22T10:30:42;9.52;;;4.90;;
38693;SDS011;24447;43.460;25.744;2023-06-22T10:33:08;9.05;;;5.53;;
38693;SDS011;24447;43.460;25.744;2023-06-22T10:35:35;9.43;;;4.82;;
38693;SDS011;24447;43.460;25.744;2023-06-22T10:38:02;10.35;;;5.20;;
38693;SDS011;24447;43.460;25.744;2023-06-22T10:40:29;7.85;;;4.97;;
38693;SDS011;24447;43.460;25.744;2023-06-22T10:42:55;10.63;;;5.50;;
38693;SDS011;24447;43.460;25.744;2023-06-22T10:45:21;7.00;;;4.82;;
38693;SDS011;24447;43.460;25.744;2023-06-22T10:47:47;13.70;;;5.18;;
38693;SDS011;24447;43.460;25.744;2023-06-22T10:50:13;8.70;;;5.38;;
38693;SDS011;24447;43.460;25.744;2023-06-22T10:52:39;8.38;;;5.35;;
38693;SDS011;24447;43.460;25.744;2023-06-22T10:55:07;12.77;;;6.15;;
38693;SDS011;24447;43.460;25.744;2023-06-22T10:57:33;11.77;;;5.85;;
38693;SDS011;24447;43.460;25.744;2023-06-22T10:59:59;8.55;;;5.28;;
38693;SDS011;24447;43.460;25.744;2023-06-22T11:02:25;10.93;;;5.55;;
38693;SDS011;24447;43.460;25.744;2023-06-22T11:04:53;11.32;;;5.13;;
38693;SDS011;24447;43.460;25.744;2023-06-22T11:07:19;10.05;;;5.13;;
38693;SDS011;24447;43.460;25.744;2023-06-22T11:09:45;8.35;;;4.90;;
38693;SDS011;24447;43.460;25.744;2023-06-22T11:12:11;8.23;;;5.00;;
38693;SDS011;24447;43.460;25.744;2023-06-22T11:14:38;11.05;;;5.40;;
38693;SDS011;24447;43.460;25.744;2023-06-22T11:17:04;9.30;;;5.53;;
38693;SDS011;24447;43.460;25.744;2023-06-22T11:19:30;7.85;;;4.57;;
38693;SDS011;24447;43.460;25.744;2023-06-22T11:21:56;14.15;;;6.05;;
38693;SDS011;24447;43.460;25.744;2023-06-22T11:24:22;8.48;;;4.63;;
38693;SDS011;24447;43.460;25.744;2023-06-22T11:26:48;9.85;;;4.70;;
38693;SDS011;24447;43.460;25.744;2023-06-22T11:29:14;7.55;;;4.80;;
38693;SDS011;24447;43.460;25.744;2023-06-22T11:31:40;14.32;;;5.63;;
38693;SDS011;24447;43.460;25.744;2023-06-22T11:34:07;10.23;;;5.43;;
38693;SDS011;24447;43.460;25.744;2023-06-22T11:36:33;10.98;;;5.60;;
38693;SDS011;24447;43.460;25.744;2023-06-22T11:39:00;8.40;;;4.75;;
38693;SDS011;24447;43.460;25.744;2023-06-22T11:41:26;10.80;;;5.10;;
38693;SDS011;24447;43.460;25.744;2023-06-22T11:43:52;9.30;;;4.80;;
38693;SDS011;24447;43.460;25.744;2023-06-22T11:46:18;9.25;;;5.28;;
38693;SDS011;24447;43.460;25.744;2023-06-22T11:48:44;9.40;;;4.63;;
38693;SDS011;24447;43.460;25.744;2023-06-22T11:51:10;9.68;;;5.15;;
38693;SDS011;24447;43.460;25.744;2023-06-22T11:53:36;9.68;;;5.05;;
38693;SDS011;24447;43.460;25.744;2023-06-22T11:56:02;6.57;;;4.60;;
38693;SDS011;24447;43.460;25.744;2023-06-22T11:58:28;9.35;;;5.10;;
38693;SDS011;24447;43.460;25.744;2023-06-22T12:00:54;6.93;;;4.60;;
38693;SDS011;24447;43.460;25.744;2023-06-22T12:03:20;8.48;;;5.05;;
38693;SDS011;24447;43.460;25.744;2023-06-22T12:05:49;10.45;;;5.13;;
38693;SDS011;24447;43.460;25.744;2023-06-22T12:10:44;7.68;;;4.80;;
38693;SDS011;24447;43.460;25.744;2023-06-22T12:13:10;9.20;;;5.30;;
38693;SDS011;24447;43.460;25.744;2023-06-22T12:15:36;11.35;;;6.40;;
38693;SDS011;24447;43.460;25.744;2023-06-22T12:18:02;7.05;;;4.72;;
38693;SDS011;24447;43.460;25.744;2023-06-22T12:20:28;8.57;;;4.88;;
38693;SDS011;24447;43.460;25.744;2023-06-22T12:22:54;10.60;;;4.63;;
38693;SDS011;24447;43.460;25.744;2023-06-22T12:25:23;11.00;;;5.73;;
38693;SDS011;24447;43.460;25.744;2023-06-22T12:27:49;9.18;;;5.43;;
38693;SDS011;24447;43.460;25.744;2023-06-22T12:30:15;13.88;;;6.15;;
38693;SDS011;24447;43.460;25.744;2023-06-22T12:32:42;8.88;;;5.40;;
38693;SDS011;24447;43.460;25.744;2023-06-22T12:35:08;8.00;;;4.70;;
38693;SDS011;24447;43.460;25.744;2023-06-22T12:37:39;7.20;;;4.53;;
38693;SDS011;24447;43.460;25.744;2023-06-22T12:40:08;9.13;;;5.18;;
38693;SDS011;24447;43.460;25.744;2023-06-22T12:42:34;8.70;;;5.03;;
38693;SDS011;24447;43.460;25.744;2023-06-22T12:45:00;12.02;;;6.18;;
38693;SDS011;24447;43.460;25.744;2023-06-22T12:47:26;6.50;;;4.43;;
38693;SDS011;24447;43.460;25.744;2023-06-22T12:49:52;10.93;;;5.93;;
38693;SDS011;24447;43.460;25.744;2023-06-22T12:52:18;11.95;;;5.70;;
38693;SDS011;24447;43.460;25.744;2023-06-22T12:54:44;7.25;;;4.93;;
38693;SDS011;24447;43.460;25.744;2023-06-22T12:57:10;9.93;;;5.75;;
38693;SDS011;24447;43.460;25.744;2023-06-22T12:59:36;9.48;;;4.80;;
38693;SDS011;24447;43.460;25.744;2023-06-22T13:02:02;9.82;;;4.78;;
38693;SDS011;24447;43.460;25.744;2023-06-22T13:04:28;8.63;;;5.00;;
38693;SDS011;24447;43.460;25.744;2023-06-22T13:06:54;7.78;;;4.65;;
38693;SDS011;24447;43.460;25.744;2023-06-22T13:09:20;10.52;;;5.38;;
38693;SDS011;24447;43.460;25.744;2023-06-22T13:11:46;8.98;;;5.07;;
38693;SDS011;24447;43.460;25.744;2023-06-22T13:14:12;10.05;;;5.20;;
38693;SDS011;24447;43.460;25.744;2023-06-22T13:16:37;8.23;;;5.15;;
38693;SDS011;24447;43.460;25.744;2023-06-22T13:19:03;8.90;;;5.05;;
38693;SDS011;24447;43.460;25.744;2023-06-22T13:21:30;12.48;;;6.10;;
38693;SDS011;24447;43.460;25.744;2023-06-22T13:23:56;8.77;;;5.35;;
38693;SDS011;24447;43.460;25.744;2023-06-22T13:26:22;12.63;;;5.88;;
38693;SDS011;24447;43.460;25.744;2023-06-22T13:28:48;9.75;;;5.47;;
38693;SDS011;24447;43.460;25.744;2023-06-22T13:31:14;9.77;;;5.25;;
38693;SDS011;24447;43.460;25.744;2023-06-22T13:33:42;18.45;;;6.22;;
38693;SDS011;24447;43.460;25.744;2023-06-22T13:36:10;9.82;;;5.55;;
38693;SDS011;24447;43.460;25.744;2023-06-22T13:38:36;7.80;;;4.80;;
38693;SDS011;24447;43.460;25.744;2023-06-22T13:41:03;8.00;;;5.13;;
38693;SDS011;24447;43.460;25.744;2023-06-22T13:43:30;9.00;;;5.82;;
38693;SDS011;24447;43.460;25.744;2023-06-22T13:45:56;9.82;;;5.22;;
38693;SDS011;24447;43.460;25.744;2023-06-22T13:48:22;7.60;;;4.90;;
38693;SDS011;24447;43.460;25.744;2023-06-22T13:50:48;9.57;;;4.78;;
38693;SDS011;24447;43.460;25.744;2023-06-22T13:53:14;10.07;;;5.10;;
38693;SDS011;24447;43.460;25.744;2023-06-22T13:55:40;9.82;;;5.53;;
38693;SDS011;24447;43.460;25.744;2023-06-22T13:58:06;11.27;;;5.13;;
38693;SDS011;24447;43.460;25.744;2023-06-22T14:00:32;10.80;;;4.97;;
38693;SDS011;24447;43.460;25.744;2023-06-22T14:02:58;9.48;;;5.28;;
38693;SDS011;24447;43.460;25.744;2023-06-22T14:05:24;9.50;;;6.00;;
38693;SDS011;24447;43.460;25.744;2023-06-22T14:07:50;12.00;;;5.45;;
38693;SDS011;24447;43.460;25.744;2023-06-22T14:10:16;10.45;;;5.10;;
38693;SDS011;24447;43.460;25.744;2023-06-22T14:12:42;10.27;;;5.35;;
38693;SDS011;24447;43.460;25.744;2023-06-22T14:15:08;10.50;;;5.20;;
38693;SDS011;24447;43.460;25.744;2023-06-22T14:17:34;13.00;;;5.60;;
38693;SDS011;24447;43.460;25.744;2023-06-22T14:19:59;10.55;;;5.03;;
38693;SDS011;24447;43.460;25.744;2023-06-22T14:22:25;9.27;;;5.03;;
38693;SDS011;24447;43.460;25.744;2023-06-22T14:24:54;10.18;;;5.55;;
38693;SDS011;24447;43.460;25.744;2023-06-22T14:27:22;10.20;;;5.43;;
38693;SDS011;24447;43.460;25.744;2023-06-22T14:29:48;13.57;;;5.55;;
38693;SDS011;24447;43.460;25.744;2023-06-22T14:32:14;8.98;;;4.80;;
38693;SDS011;24447;43.460;25.744;2023-06-22T14:34:40;9.25;;;5.15;;
38693;SDS011;24447;43.460;25.744;2023-06-22T14:37:06;10.13;;;5.65;;
38693;SDS011;24447;43.460;25.744;2023-06-22T14:39:34;9.20;;;5.25;;
38693;SDS011;24447;43.460;25.744;2023-06-22T14:42:00;11.73;;;6.00;;
38693;SDS011;24447;43.460;25.744;2023-06-22T14:44:27;11.45;;;5.95;;
38693;SDS011;24447;43.460;25.744;2023-06-22T14:46:54;10.55;;;5.47;;
38693;SDS011;24447;43.460;25.744;2023-06-22T14:49:20;12.20;;;5.95;;